Date,TemperatureHighF,TemperatureAvgF,TemperatureLowF,DewpointHighF,DewpointAvgF,DewpointLowF,HumidityHigh,HumidityAvg,HumidityLow,PressureMaxIn,PressureMinIn,WindSpeedMaxMPH,WindSpeedAvgMPH,GustSpeedMaxMPH,PrecipitationSumIn
2013-5-1,62.0,51.7,44.4,46.3,40.7,36.6,82,67,44,30.70,30.54,2,0,5,0.00
2013-5-2,57.5,53.4,48.3,48.9,45.1,39.7,84,73,63,30.65,30.48,3,0,7,0.00
2013-5-3,67.0,57.1,50.3,54.7,49.2,45.3,86,75,62,30.52,30.34,4,0,8,0.00
2013-5-4,70.4,60.6,54.3,56.9,51.1,47.0,85,72,58,30.38,30.10,6,0,7,0.00
2013-5-5,75.8,64.4,56.3,58.5,51.6,47.4,78,64,49,30.11,29.85,3,0,5,0.00
2013-5-6,69.6,59.9,57.5,54.2,52.4,50.8,82,76,58,29.95,29.89,0,0,1,0.00
2013-5-18,63.1,56.6,54.3,52.9,51.4,50.1,91,83,67,30.37,30.12,0,0,0,0.02
2013-5-19,65.2,57.4,53.8,53.4,51.0,49.2,92,80,62,30.49,30.37,0,0,0,0.00
2013-5-20,65.8,57.6,52.7,53.7,50.8,49.0,88,78,63,30.43,29.98,0,0,0,0.02
2013-5-21,60.8,52.9,50.7,50.9,49.1,47.4,90,87,69,29.96,29.88,0,0,0,0.32
2013-5-22,61.5,53.8,48.5,50.0,48.0,45.7,92,81,64,30.02,29.92,1,0,0,0.20
2013-5-23,65.3,55.5,50.7,51.2,48.3,46.6,89,77,60,30.09,30.03,1,0,0,0.04
2013-5-24,70.3,57.7,50.7,52.3,48.4,45.1,89,73,46,30.10,30.06,1,0,4,0.01
2013-5-25,64.2,56.0,52.2,52.3,49.2,47.5,86,78,60,30.12,30.08,2,0,5,0.00
2013-5-26,60.6,57.0,55.2,54.3,52.4,51.4,88,85,76,30.07,30.02,1,0,6,0.00
2013-5-27,58.5,57.3,56.0,55.2,54.0,51.7,92,88,82,30.01,29.79,2,0,5,0.00
2013-5-28,57.1,55.7,53.9,54.8,53.3,51.6,94,92,89,29.96,29.82,2,0,5,0.00
2013-5-29,54.8,54.2,53.8,52.5,51.9,51.7,93,92,91,29.84,29.78,0,0,2,0.00
2013-5-30,60.5,54.7,50.6,53.4,50.5,48.1,92,86,73,30.33,30.04,1,0,0,0.03
2013-5-31,67.5,58.0,52.6,53.4,50.7,48.8,92,78,59,30.45,30.33,0,0,0,0.00